createdAt,value
2019-01-15T00:01:00.881Z,2.67
2019-01-15T00:03:29.690Z,2.40
2019-01-15T00:05:58.810Z,2.95
2019-01-15T00:08:27.610Z,2.70
2019-01-15T00:10:56.502Z,2.37
2019-01-15T00:13:25.334Z,2.92
2019-01-15T00:15:54.044Z,2.47
2019-01-15T00:18:22.789Z,2.80
2019-01-15T00:20:51.523Z,3.70
2019-01-15T00:23:20.338Z,3.22
2019-01-15T00:25:49.173Z,2.50
2019-01-15T00:28:18.050Z,3.72
2019-01-15T00:30:46.778Z,3.05
2019-01-15T00:33:15.541Z,2.42
2019-01-15T00:35:44.434Z,2.15
2019-01-15T00:38:13.234Z,2.50
2019-01-15T00:40:42.118Z,2.37
2019-01-15T00:43:10.886Z,2.70
2019-01-15T00:45:39.678Z,2.40
2019-01-15T00:48:08.888Z,2.62
2019-01-15T00:50:37.638Z,2.45
2019-01-15T00:53:06.361Z,2.40
2019-01-15T00:55:35.093Z,1.85
2019-01-15T00:58:03.922Z,2.65
2019-01-15T01:00:32.695Z,2.02
2019-01-15T01:03:01.506Z,2.80
2019-01-15T01:05:30.216Z,2.77
2019-01-15T01:07:58.960Z,2.80
2019-01-15T01:10:27.693Z,4.35
2019-01-15T01:12:56.482Z,3.80
2019-01-15T01:15:25.225Z,3.00
2019-01-15T01:17:56.003Z,2.60
2019-01-15T01:20:24.831Z,2.55
2019-01-15T01:22:53.579Z,2.27
2019-01-15T01:25:22.432Z,2.17
2019-01-15T01:27:51.190Z,2.55
2019-01-15T01:30:23.568Z,2.77
2019-01-15T01:32:52.418Z,3.33
2019-01-15T01:35:21.181Z,2.85
2019-01-15T01:37:49.922Z,2.80
2019-01-15T01:40:19.794Z,3.37
2019-01-15T01:42:48.567Z,3.50
2019-01-15T01:45:18.021Z,3.58
2019-01-15T01:47:46.741Z,3.42
2019-01-15T01:50:15.530Z,4.50
2019-01-15T01:52:44.422Z,4.30
2019-01-15T01:55:14.670Z,4.47
2019-01-15T01:57:43.587Z,5.15
2019-01-15T02:00:18.566Z,5.25
2019-01-15T02:02:47.389Z,4.85
2019-01-15T02:05:16.094Z,4.97
2019-01-15T02:07:44.829Z,4.67
2019-01-15T02:10:20.460Z,4.75
2019-01-15T02:12:49.893Z,5.08
2019-01-15T02:15:23.470Z,5.72
2019-01-15T02:17:52.186Z,5.50
2019-01-15T02:20:20.957Z,5.70
2019-01-15T02:22:49.814Z,5.95
2019-01-15T02:25:18.532Z,6.60
2019-01-15T02:27:49.522Z,5.92
2019-01-15T02:30:20.296Z,7.85
2019-01-15T02:32:50.059Z,7.00
2019-01-15T02:35:18.875Z,7.08
2019-01-15T02:37:47.751Z,7.37
2019-01-15T02:40:16.546Z,7.78
2019-01-15T02:42:46.816Z,7.60
2019-01-15T02:45:17.778Z,6.83
2019-01-15T02:47:46.868Z,7.87
2019-01-15T02:50:16.793Z,7.12
2019-01-15T02:52:45.600Z,7.00
2019-01-15T02:55:14.351Z,7.37
2019-01-15T02:57:43.185Z,6.47
2019-01-15T03:00:23.066Z,6.67
2019-01-15T03:02:51.934Z,6.83
2019-01-15T03:05:20.823Z,8.35
2019-01-15T03:07:49.713Z,8.20
2019-01-15T03:10:19.310Z,7.97
2019-01-15T03:12:55.460Z,7.33
2019-01-15T03:15:23.665Z,8.33
2019-01-15T03:17:52.846Z,7.67
2019-01-15T03:20:21.715Z,8.45
2019-01-15T03:22:50.540Z,9.45
2019-01-15T03:25:19.373Z,8.98
2019-01-15T03:27:48.139Z,8.80
2019-01-15T03:30:21.705Z,8.50
2019-01-15T03:32:50.542Z,8.80
2019-01-15T03:35:19.326Z,8.73
2019-01-15T03:37:48.133Z,8.08
2019-01-15T03:40:21.813Z,8.63
2019-01-15T03:42:50.591Z,7.75
2019-01-15T03:45:19.349Z,8.50
2019-01-15T03:47:48.054Z,8.90
2019-01-15T03:50:17.272Z,8.10
2019-01-15T03:52:46.093Z,8.55
2019-01-15T03:55:15.157Z,8.73
2019-01-15T03:57:46.258Z,9.48
2019-01-15T04:00:23.650Z,9.00
2019-01-15T04:02:52.857Z,8.95
2019-01-15T04:05:22.715Z,9.50
2019-01-15T04:07:55.921Z,10.00
2019-01-15T04:10:24.734Z,9.45
2019-01-15T04:12:53.538Z,10.63
2019-01-15T04:15:22.285Z,10.53
2019-01-15T04:17:51.124Z,8.35
2019-01-15T04:20:19.875Z,8.78
2019-01-15T04:22:48.713Z,7.50
2019-01-15T04:25:17.418Z,6.40
2019-01-15T04:27:46.122Z,5.87
2019-01-15T04:30:17.199Z,6.17
2019-01-15T04:32:45.974Z,6.10
2019-01-15T04:35:14.776Z,5.55
2019-01-15T04:37:43.633Z,6.72
2019-01-15T04:40:17.583Z,5.97
2019-01-15T04:42:46.307Z,7.53
2019-01-15T04:45:16.468Z,6.05
2019-01-15T04:47:45.178Z,6.58
2019-01-15T04:50:15.634Z,7.45
2019-01-15T04:52:46.476Z,7.45
2019-01-15T04:55:15.262Z,8.53
2019-01-15T04:57:43.999Z,7.97
2019-01-15T05:00:15.214Z,8.75
2019-01-15T05:02:44.354Z,8.53
2019-01-15T05:05:13.098Z,8.48
2019-01-15T05:07:41.880Z,8.43
2019-01-15T05:10:11.704Z,8.05
2019-01-15T05:12:40.428Z,8.23
2019-01-15T05:15:12.904Z,7.33
2019-01-15T05:17:41.459Z,8.48
2019-01-15T05:20:11.480Z,8.25
2019-01-15T05:22:40.203Z,6.97
2019-01-15T05:25:11.709Z,6.97
2019-01-15T05:27:40.829Z,7.42
2019-01-15T05:30:13.369Z,7.00
2019-01-15T05:32:44.458Z,6.78
2019-01-15T05:35:13.165Z,7.00
2019-01-15T05:37:41.889Z,5.87
2019-01-15T05:40:10.864Z,6.25
2019-01-15T05:42:40.844Z,6.03
2019-01-15T05:45:12.735Z,5.92
2019-01-15T05:47:41.739Z,6.87
2019-01-15T05:50:13.272Z,6.42
2019-01-15T05:52:41.983Z,6.08
2019-01-15T05:55:10.715Z,6.15
2019-01-15T05:57:39.471Z,5.05
2019-01-15T06:00:09.654Z,4.65
2019-01-15T06:02:38.485Z,4.37
2019-01-15T06:05:08.309Z,4.35
2019-01-15T06:07:37.010Z,6.40
2019-01-15T06:10:08.534Z,4.47
2019-01-15T06:12:37.455Z,4.50
2019-01-15T06:15:07.271Z,4.20
2019-01-15T06:17:36.050Z,4.45
2019-01-15T06:20:06.342Z,4.62
2019-01-15T06:22:35.132Z,3.95
2019-01-15T06:25:04.176Z,3.60
2019-01-15T06:27:33.028Z,3.30
2019-01-15T06:30:01.746Z,3.50
2019-01-15T06:32:30.488Z,2.85
2019-01-15T06:35:00.051Z,2.95
2019-01-15T06:37:28.775Z,3.67
2019-01-15T06:39:57.508Z,3.65
2019-01-15T06:42:26.238Z,4.22
2019-01-15T06:44:54.954Z,2.95
2019-01-15T06:47:24.530Z,3.02
2019-01-15T06:49:53.357Z,3.30
2019-01-15T06:52:22.162Z,3.50
2019-01-15T06:54:51.090Z,4.45
2019-01-15T06:57:19.841Z,4.00
2019-01-15T06:59:48.676Z,3.62
2019-01-15T07:02:17.415Z,3.60
2019-01-15T07:04:46.190Z,3.80
2019-01-15T07:07:14.939Z,4.33
2019-01-15T07:09:43.760Z,3.67
2019-01-15T07:12:12.582Z,3.58
2019-01-15T07:14:41.407Z,3.65
2019-01-15T07:17:10.506Z,3.47
2019-01-15T07:19:39.260Z,4.30
2019-01-15T07:22:07.998Z,4.33
2019-01-15T07:24:36.747Z,4.20
2019-01-15T07:27:05.980Z,3.83
2019-01-15T07:29:34.777Z,3.30
2019-01-15T07:32:03.539Z,5.15
2019-01-15T07:34:32.468Z,3.67
2019-01-15T07:37:01.262Z,3.40
2019-01-15T07:39:30.078Z,3.50
2019-01-15T07:41:58.937Z,3.30
2019-01-15T07:44:27.846Z,3.35
2019-01-15T07:46:56.558Z,3.05
2019-01-15T07:49:25.414Z,3.60
2019-01-15T07:51:54.191Z,3.27
2019-01-15T07:54:23.030Z,3.75
2019-01-15T07:56:53.800Z,2.95
2019-01-15T07:59:22.297Z,3.83
2019-01-15T08:01:51.765Z,2.87
2019-01-15T08:04:20.567Z,3.35
2019-01-15T08:06:49.433Z,2.77
2019-01-15T08:09:18.183Z,3.58
2019-01-15T08:11:46.951Z,3.33
2019-01-15T08:14:16.897Z,3.05
2019-01-15T08:16:45.684Z,4.42
2019-01-15T08:19:14.486Z,3.25
2019-01-15T08:21:43.304Z,3.37
2019-01-15T08:24:12.013Z,3.30
2019-01-15T08:26:40.822Z,3.22
2019-01-15T08:29:09.615Z,3.30
2019-01-15T08:31:38.386Z,4.15
2019-01-15T08:34:07.119Z,3.67
2019-01-15T08:36:35.846Z,3.72
2019-01-15T08:39:07.468Z,2.95
2019-01-15T08:41:36.187Z,3.77
2019-01-15T08:44:05.018Z,3.15
2019-01-15T08:46:34.725Z,4.20
2019-01-15T08:49:22.735Z,2.72
2019-01-15T08:51:52.530Z,3.95
2019-01-15T08:54:21.527Z,3.20
2019-01-15T08:56:50.403Z,2.87
2019-01-15T08:59:19.194Z,4.22
2019-01-15T09:01:47.963Z,4.37
2019-01-15T09:04:16.691Z,3.15
2019-01-15T09:06:45.434Z,4.37
2019-01-15T09:09:14.145Z,2.72
2019-01-15T09:11:42.850Z,3.70
2019-01-15T09:14:11.629Z,3.90
2019-01-15T09:16:40.346Z,3.35
2019-01-15T09:19:09.215Z,2.98
2019-01-15T09:21:37.974Z,3.20
2019-01-15T09:24:06.706Z,3.27
2019-01-15T09:26:36.287Z,3.90
2019-01-15T09:29:05.112Z,2.90
2019-01-15T09:31:33.909Z,3.70
2019-01-15T09:34:02.623Z,3.20
2019-01-15T09:36:31.363Z,3.22
2019-01-15T09:39:00.074Z,3.37
2019-01-15T09:41:28.949Z,3.50
2019-01-15T09:43:57.801Z,2.87
2019-01-15T09:46:26.542Z,3.00
2019-01-15T09:48:55.351Z,2.90
2019-01-15T09:51:24.100Z,2.80
2019-01-15T09:53:52.861Z,2.92
2019-01-15T09:56:21.620Z,2.58
2019-01-15T09:58:51.150Z,3.27
2019-01-15T10:01:19.870Z,2.80
2019-01-15T10:03:51.467Z,3.10
2019-01-15T10:06:20.277Z,2.95
2019-01-15T10:08:49.035Z,3.30
2019-01-15T10:11:17.804Z,3.70
2019-01-15T10:13:46.558Z,3.05
2019-01-15T10:16:17.209Z,2.80
2019-01-15T10:18:46.057Z,3.08
2019-01-15T10:21:14.918Z,2.70
2019-01-15T10:23:43.745Z,3.08
2019-01-15T10:26:12.498Z,3.02
2019-01-15T10:28:44.155Z,3.35
2019-01-15T10:31:56.695Z,3.27
2019-01-15T10:34:35.163Z,2.90
2019-01-15T10:37:02.763Z,2.95
2019-01-15T10:39:31.507Z,4.10
2019-01-15T10:42:00.341Z,2.98
2019-01-15T10:44:29.096Z,2.75
2019-01-15T10:46:57.878Z,3.22
2019-01-15T10:49:26.712Z,2.98
2019-01-15T10:51:55.471Z,3.02
2019-01-15T10:54:24.247Z,3.27
2019-01-15T10:56:53.051Z,3.20
2019-01-15T10:59:21.778Z,3.40
2019-01-15T11:01:50.512Z,3.67
2019-01-15T11:04:19.250Z,3.42
2019-01-15T11:06:47.971Z,3.15
2019-01-15T11:09:16.714Z,3.17
2019-01-15T11:11:45.468Z,3.58
2019-01-15T11:14:17.694Z,3.45
2019-01-15T11:16:46.432Z,3.45
2019-01-15T11:19:15.281Z,2.60
2019-01-15T11:21:44.006Z,3.67
2019-01-15T11:24:12.763Z,3.50
2019-01-15T11:26:41.506Z,2.98
2019-01-15T11:29:10.226Z,2.95
2019-01-15T11:31:38.986Z,3.08
2019-01-15T11:34:07.766Z,3.08
2019-01-15T11:36:36.539Z,2.70
2019-01-15T11:39:08.729Z,3.27
2019-01-15T11:41:37.481Z,3.10
2019-01-15T11:44:06.198Z,2.90
2019-01-15T11:46:34.926Z,2.72
2019-01-15T11:49:03.774Z,6.00
2019-01-15T11:51:32.528Z,2.67
2019-01-15T11:54:01.262Z,4.75
2019-01-15T11:56:30.098Z,2.87
2019-01-15T11:58:59.517Z,3.72
2019-01-15T12:01:47.149Z,3.67
2019-01-15T12:04:41.026Z,3.60
2019-01-15T12:07:27.330Z,3.33
2019-01-15T12:10:12.530Z,3.40
2019-01-15T12:12:58.946Z,3.55
2019-01-15T12:15:54.400Z,2.70
2019-01-15T12:18:51.322Z,3.47
2019-01-15T12:21:38.050Z,3.37
2019-01-15T12:24:24.896Z,2.90
2019-01-15T12:27:05.351Z,2.85
2019-01-15T12:29:53.189Z,3.27
2019-01-15T12:32:50.175Z,2.92
2019-01-15T12:35:38.566Z,2.77
2019-01-15T12:38:25.463Z,3.20
2019-01-15T12:41:19.134Z,3.27
2019-01-15T12:44:19.054Z,2.75
2019-01-15T12:47:05.467Z,2.85
2019-01-15T12:49:52.429Z,2.52
2019-01-15T12:52:55.590Z,2.62
2019-01-15T12:56:01.406Z,3.10
2019-01-15T12:58:49.304Z,2.22
2019-01-15T13:01:37.584Z,3.60
2019-01-15T13:04:20.325Z,3.00
2019-01-15T13:07:12.838Z,4.37
2019-01-15T13:10:09.742Z,2.52
2019-01-15T13:12:54.558Z,2.60
2019-01-15T13:15:45.398Z,2.45
2019-01-15T13:18:35.126Z,2.47
2019-01-15T13:21:20.948Z,3.00
2019-01-15T13:23:59.978Z,2.30
2019-01-15T13:26:47.869Z,3.67
2019-01-15T13:29:34.626Z,3.70
2019-01-15T13:32:16.929Z,3.05
2019-01-15T13:34:56.574Z,3.20
2019-01-15T13:37:50.245Z,3.15
2019-01-15T13:40:28.821Z,3.12
2019-01-15T13:43:17.508Z,2.92
2019-01-15T13:46:03.962Z,2.65
2019-01-15T13:48:55.560Z,2.75
2019-01-15T13:51:55.962Z,2.72
2019-01-15T13:54:55.966Z,3.25
2019-01-15T13:57:50.485Z,2.70
2019-01-15T14:00:36.143Z,3.05
2019-01-15T14:03:32.782Z,2.90
2019-01-15T14:06:17.192Z,3.62
2019-01-15T14:08:56.235Z,2.83
2019-01-15T14:11:53.214Z,2.92
2019-01-15T14:14:43.813Z,2.83
2019-01-15T14:17:37.747Z,3.05
2019-01-15T14:20:31.462Z,3.05
2019-01-15T14:23:22.401Z,2.95
2019-01-15T14:26:02.626Z,3.50
2019-01-15T14:28:43.482Z,2.80
2019-01-15T14:31:46.694Z,3.30
2019-01-15T14:34:33.086Z,3.65
2019-01-15T14:37:18.498Z,3.15
2019-01-15T14:40:15.126Z,3.47
2019-01-15T14:42:53.307Z,4.67
2019-01-15T14:45:46.952Z,4.55
2019-01-15T14:48:37.446Z,3.67
2019-01-15T14:51:22.038Z,3.80
2019-01-15T14:54:09.844Z,5.08
2019-01-15T14:57:32.814Z,3.55
2019-01-15T15:00:24.054Z,4.87
2019-01-15T15:03:11.542Z,3.30
2019-01-15T15:06:02.474Z,3.72
2019-01-15T15:08:48.936Z,2.67
2019-01-15T15:11:52.090Z,3.33
2019-01-15T15:14:28.935Z,3.95
2019-01-15T15:17:23.129Z,3.85
2019-01-15T15:20:13.882Z,3.90
2019-01-15T15:23:02.758Z,4.70
2019-01-15T15:25:58.778Z,4.03
2019-01-15T15:28:57.572Z,3.62
2019-01-15T15:31:44.385Z,3.65
2019-01-15T15:34:47.762Z,2.80
2019-01-15T15:37:34.398Z,3.17
2019-01-15T15:40:37.750Z,3.90
2019-01-15T15:43:22.864Z,3.92
2019-01-15T15:46:11.370Z,4.05
2019-01-15T15:48:57.458Z,3.50
2019-01-15T15:51:51.334Z,4.17
2019-01-15T15:54:38.718Z,3.80
2019-01-15T15:57:29.007Z,4.03
2019-01-15T16:00:15.908Z,3.75
2019-01-15T16:03:03.974Z,3.80
2019-01-15T16:05:54.970Z,3.50
2019-01-15T16:08:58.356Z,3.90
2019-01-15T16:11:54.278Z,3.87
2019-01-15T16:14:45.751Z,3.60
2019-01-15T16:17:46.017Z,3.50
2019-01-15T16:20:36.860Z,5.15
2019-01-15T16:23:30.700Z,4.37
2019-01-15T16:26:14.810Z,3.27
2019-01-15T16:28:56.652Z,3.80
2019-01-15T16:31:50.515Z,4.00
2019-01-15T16:34:28.229Z,3.83
2019-01-15T16:37:13.835Z,3.52
2019-01-15T16:40:02.355Z,3.77
2019-01-15T16:42:51.266Z,4.92
2019-01-15T16:45:39.214Z,4.12
2019-01-15T16:48:33.130Z,4.10
2019-01-15T16:51:20.914Z,3.58
2019-01-15T16:54:11.565Z,3.42
2019-01-15T16:56:59.347Z,3.70
2019-01-15T16:59:43.058Z,3.87
2019-01-15T17:02:23.201Z,3.70
2019-01-15T17:05:05.412Z,3.12
2019-01-15T17:07:54.257Z,3.40
2019-01-15T17:10:33.621Z,3.60
2019-01-15T17:13:20.195Z,2.98
2019-01-15T17:16:18.843Z,4.35
2019-01-15T17:19:08.022Z,3.40
2019-01-15T17:21:58.603Z,3.90
2019-01-15T17:24:56.474Z,4.62
2019-01-15T17:27:35.950Z,3.98
2019-01-15T17:30:23.758Z,3.60
2019-01-15T17:33:19.754Z,3.83
2019-01-15T17:36:18.589Z,3.55
2019-01-15T17:39:18.754Z,4.62
2019-01-15T17:42:06.558Z,4.28
2019-01-15T17:44:57.113Z,3.85
2019-01-15T17:47:44.887Z,3.65
2019-01-15T17:50:42.264Z,4.17
2019-01-15T17:53:28.603Z,4.30
2019-01-15T17:56:20.270Z,4.08
2019-01-15T17:59:26.259Z,4.30
2019-01-15T18:02:29.410Z,5.17
2019-01-15T18:05:16.221Z,4.55
2019-01-15T18:08:02.954Z,4.75
2019-01-15T18:11:03.361Z,4.75
2019-01-15T18:13:48.953Z,4.42
2019-01-15T18:16:49.066Z,5.00
2019-01-15T18:19:52.039Z,4.70
2019-01-15T18:22:39.830Z,4.53
2019-01-15T18:25:26.577Z,4.00
2019-01-15T18:28:08.278Z,5.40
2019-01-15T18:30:56.835Z,5.22
2019-01-15T18:33:47.452Z,3.37
2019-01-15T18:36:38.078Z,4.10
2019-01-15T18:39:27.745Z,3.87
2019-01-15T18:42:08.080Z,3.60
2019-01-15T18:45:02.588Z,3.95
2019-01-15T18:47:42.286Z,4.47
2019-01-15T18:50:24.942Z,3.45
2019-01-15T18:53:09.955Z,4.45
2019-01-15T18:55:58.147Z,3.85
2019-01-15T18:59:01.330Z,3.50
2019-01-15T19:01:49.327Z,4.33
2019-01-15T19:04:35.851Z,4.53
2019-01-15T19:07:22.601Z,3.98
2019-01-15T19:10:09.544Z,3.42
2019-01-15T19:12:56.786Z,3.80
2019-01-15T19:15:43.170Z,3.10
2019-01-15T19:18:34.054Z,3.37
2019-01-15T19:21:30.884Z,4.30
2019-01-15T19:24:12.540Z,3.83
2019-01-15T19:26:59.213Z,3.47
2019-01-15T19:30:05.411Z,4.15
2019-01-15T19:32:56.299Z,3.83
2019-01-15T19:35:43.957Z,3.72
2019-01-15T19:38:34.643Z,4.12
2019-01-15T19:41:14.130Z,3.92
2019-01-15T19:44:04.730Z,4.40
2019-01-15T19:46:48.270Z,3.87
2019-01-15T19:49:34.711Z,4.03
2019-01-15T19:52:18.094Z,3.90
2019-01-15T19:55:07.017Z,3.83
2019-01-15T19:57:51.074Z,3.27
2019-01-15T20:00:37.602Z,3.75
2019-01-15T20:03:24.314Z,3.87
2019-01-15T20:06:18.232Z,3.40
2019-01-15T20:09:04.909Z,3.75
2019-01-15T20:11:47.964Z,3.52
2019-01-15T20:14:35.899Z,3.02
2019-01-15T20:17:26.572Z,3.22
2019-01-15T20:20:13.222Z,2.92
2019-01-15T20:23:00.311Z,3.30
2019-01-15T20:25:51.318Z,3.58
2019-01-15T20:28:38.023Z,3.12
2019-01-15T20:31:22.586Z,2.77
2019-01-15T20:34:09.111Z,2.95
2019-01-15T20:37:03.146Z,2.52
2019-01-15T20:39:43.139Z,3.30
2019-01-15T20:42:46.130Z,3.02
2019-01-15T20:45:30.378Z,2.45
2019-01-15T20:48:14.978Z,2.70
2019-01-15T20:51:12.064Z,2.95
2019-01-15T20:54:09.270Z,3.10
2019-01-15T20:57:09.155Z,2.37
2019-01-15T20:59:47.608Z,2.77
2019-01-15T21:02:44.805Z,3.00
2019-01-15T21:05:32.691Z,4.30
2019-01-15T21:08:15.775Z,4.03
2019-01-15T21:11:22.080Z,3.70
2019-01-15T21:14:21.907Z,3.15
2019-01-15T21:17:12.981Z,3.20
2019-01-15T21:20:09.994Z,3.58
2019-01-15T21:23:05.230Z,2.98
2019-01-15T21:25:44.968Z,3.55
2019-01-15T21:28:34.374Z,3.10
2019-01-15T21:31:26.607Z,3.15
2019-01-15T21:34:18.154Z,2.60
2019-01-15T21:37:04.714Z,3.62
2019-01-15T21:40:04.814Z,2.80
2019-01-15T21:42:51.442Z,3.33
2019-01-15T21:45:38.978Z,3.62
2019-01-15T21:48:32.959Z,2.90
2019-01-15T21:51:19.355Z,2.85
2019-01-15T21:54:13.478Z,2.75
2019-01-15T21:56:56.346Z,2.95
2019-01-15T21:59:56.238Z,3.45
2019-01-15T22:02:53.400Z,2.70
2019-01-15T22:05:53.258Z,2.72
2019-01-15T22:08:52.977Z,2.95
2019-01-15T22:11:30.000Z,2.92
2019-01-15T22:14:29.855Z,2.80
2019-01-15T22:17:08.594Z,2.50
2019-01-15T22:20:02.621Z,2.58
2019-01-15T22:23:00.343Z,2.95
2019-01-15T22:25:46.862Z,3.02
2019-01-15T22:28:48.571Z,2.77
2019-01-15T22:31:45.530Z,2.12
2019-01-15T22:34:39.318Z,2.90
2019-01-15T22:37:42.272Z,3.17
2019-01-15T22:40:30.181Z,3.15
2019-01-15T22:43:11.799Z,3.35
2019-01-15T22:45:58.334Z,2.77
2019-01-15T22:48:46.284Z,3.70
2019-01-15T22:51:34.187Z,2.90
2019-01-15T22:54:20.720Z,3.00
2019-01-15T22:57:20.954Z,3.12
2019-01-15T23:00:16.606Z,2.87
2019-01-15T23:02:57.869Z,3.15
2019-01-15T23:06:01.242Z,2.58
2019-01-15T23:08:37.638Z,3.00
2019-01-15T23:11:24.082Z,2.90
2019-01-15T23:14:03.294Z,2.60
2019-01-15T23:16:43.276Z,2.42
2019-01-15T23:19:31.135Z,2.02
2019-01-15T23:22:24.242Z,2.77
2019-01-15T23:25:15.090Z,2.58
2019-01-15T23:28:05.972Z,2.75
2019-01-15T23:30:57.567Z,2.55
2019-01-15T23:33:51.313Z,2.70
2019-01-15T23:36:38.835Z,2.95
2019-01-15T23:39:17.436Z,2.58
2019-01-15T23:42:03.936Z,2.50
2019-01-15T23:44:50.942Z,2.95
2019-01-15T23:47:37.622Z,3.08
2019-01-15T23:50:25.791Z,3.20
2019-01-15T23:53:12.578Z,3.52
2019-01-15T23:56:00.469Z,3.60
2019-01-15T23:58:51.123Z,3.22
